Time;durP1;ratioP1;P1;durP2;ratioP2;P2;SDS_P1;SDS_P2;PMS_P1;PMS_P2;Temp;Humidity;BMP_temperature;BMP_pressure;BME280_temperature;BME280_humidity;BME280_pressure;Samples;Min_cycle;Max_cycle;Signal;HPM_P1;HPM_P2
2023/06/20 00:01:08;;;;;;;15.98;9.82;;;17.40;99.90;;;;;;4966945;28;20404;-56
2023/06/20 00:03:34;;;;;;;13.93;8.82;;;17.80;99.90;;;;;;4973607;28;20216;-58
2023/06/20 00:05:59;;;;;;;12.40;8.25;;;18.70;99.90;;;;;;4956394;28;20121;-59
2023/06/20 00:08:25;;;;;;;12.80;9.15;;;18.30;99.90;;;;;;4973639;28;20485;-58
2023/06/20 00:10:51;;;;;;;13.82;8.80;;;17.60;99.90;;;;;;4973544;28;20065;-58
2023/06/20 00:13:17;;;;;;;12.20;8.88;;;18.40;99.90;;;;;;4973561;28;20042;-58
2023/06/20 00:15:44;;;;;;;13.32;8.65;;;17.80;99.90;;;;;;4974228;28;20093;-57
2023/06/20 00:18:09;;;;;;;12.45;8.63;;;17.70;99.90;;;;;;4969033;28;20444;-57
2023/06/20 00:20:38;;;;;;;13.68;8.77;;;18.40;99.90;;;;;;4958185;28;20035;-59
2023/06/20 00:23:04;;;;;;;14.07;9.43;;;17.60;99.90;;;;;;4966633;28;20122;-58
2023/06/20 00:25:29;;;;;;;11.68;8.85;;;17.40;99.90;;;;;;4973832;28;20552;-58
2023/06/20 00:27:55;;;;;;;14.15;9.32;;;18.10;99.90;;;;;;4971830;28;20116;-58
2023/06/20 00:30:21;;;;;;;12.93;9.23;;;17.30;99.90;;;;;;4973311;28;20074;-58
2023/06/20 00:32:46;;;;;;;16.85;9.88;;;17.40;99.90;;;;;;4972333;28;20035;-57
2023/06/20 00:35:12;;;;;;;14.60;10.77;;;17.20;99.90;;;;;;4966856;28;20050;-59
2023/06/20 00:37:38;;;;;;;15.27;10.35;;;17.60;99.90;;;;;;4949635;28;20042;-59
2023/06/20 00:40:07;;;;;;;14.63;10.57;;;17.40;99.90;;;;;;4954858;28;20520;-59
2023/06/20 00:42:34;;;;;;;14.35;10.02;;;17.40;99.90;;;;;;4972666;28;20552;-59
2023/06/20 00:45:00;;;;;;;12.82;9.23;;;17.90;99.90;;;;;;4971923;28;20062;-59
2023/06/20 00:47:27;;;;;;;15.18;9.55;;;18.30;99.90;;;;;;4973074;28;20132;-58
2023/06/20 00:49:53;;;;;;;13.50;9.48;;;18.30;99.90;;;;;;4973109;28;20114;-59
2023/06/20 00:52:23;;;;;;;15.95;9.73;;;17.60;99.90;;;;;;4965514;28;20053;-59
2023/06/20 00:54:49;;;;;;;14.05;10.60;;;17.20;99.90;;;;;;4950247;28;20496;-59
2023/06/20 00:57:17;;;;;;;14.27;10.60;;;17.10;99.90;;;;;;4973636;28;20042;-57
2023/06/20 00:59:44;;;;;;;14.20;9.98;;;17.00;99.90;;;;;;4956749;28;20049;-57
2023/06/20 01:02:10;;;;;;;15.80;10.77;;;17.30;99.90;;;;;;4973078;28;20050;-59
2023/06/20 01:04:39;;;;;;;14.18;10.40;;;17.00;99.90;;;;;;4954795;28;20043;-59
2023/06/20 01:07:28;;;;;;;15.23;11.63;;;17.40;99.90;;;;;;4972328;28;20039;-58
2023/06/20 01:10:10;;;;;;;16.17;12.13;;;17.40;1.00;;;;;;4970708;28;20086;-59
2023/06/20 01:12:45;;;;;;;15.30;11.43;;;16.80;1.00;;;;;;4972397;28;20068;-58
2023/06/20 01:15:25;;;;;;;15.30;12.10;;;18.00;1.00;;;;;;4972349;28;20129;-59
2023/06/20 01:18:25;;;;;;;15.55;11.90;;;17.00;1.00;;;;;;4966506;28;20138;-59
2023/06/20 01:20:56;;;;;;;16.85;11.38;;;17.00;1.00;;;;;;4965618;28;20042;-57
2023/06/20 01:23:34;;;;;;;14.02;10.95;;;17.20;1.00;;;;;;4954461;28;20039;-59
2023/06/20 01:26:30;;;;;;;15.50;11.68;;;17.20;1.00;;;;;;4972722;28;20035;-59
2023/06/20 01:29:13;;;;;;;17.63;11.70;;;17.20;1.00;;;;;;4959432;23;20048;-85
2023/06/20 01:31:44;;;;;;;20.10;13.07;;;17.80;1.00;;;;;;4914419;29;20043;-85
2023/06/20 01:34:27;;;;;;;18.00;12.20;;;17.50;1.00;;;;;;4898425;29;20466;-84
2023/06/20 01:37:11;;;;;;;17.70;11.75;;;17.70;1.00;;;;;;4892184;29;20043;-85
2023/06/20 01:39:45;;;;;;;18.95;13.13;;;17.70;1.00;;;;;;4899571;29;20108;-85
2023/06/20 01:42:30;;;;;;;16.02;12.13;;;17.20;1.00;;;;;;4898566;29;20043;-86
2023/06/20 01:45:02;;;;;;;19.63;13.52;;;17.30;1.00;;;;;;4890194;29;20044;-85
2023/06/20 01:47:36;;;;;;;16.10;11.98;;;17.50;1.00;;;;;;4922864;29;20134;-85
2023/06/20 01:50:19;;;;;;;;;;;18.10;1.00;;;;;;4908790;29;20490;-85
2023/06/20 01:52:59;;;;;;;17.75;12.88;;;18.30;1.00;;;;;;4890758;29;20157;-85
2023/06/20 01:55:41;;;;;;;19.73;13.13;;;18.10;1.00;;;;;;4912401;29;20055;-85
2023/06/20 02:00:45;;;;;;;18.83;12.65;;;17.50;1.00;;;;;;5004004;22;20055;-60
2023/06/20 02:03:12;;;;;;;18.15;13.15;;;16.90;1.00;;;;;;4967134;28;20042;-60
2023/06/20 02:05:40;;;;;;;19.17;12.63;;;17.80;1.00;;;;;;4970348;28;20069;-60
2023/06/20 02:08:07;;;;;;;16.13;11.93;;;17.60;1.00;;;;;;4971973;28;20121;-60
2023/06/20 02:10:34;;;;;;;19.13;13.63;;;17.10;1.00;;;;;;4971607;28;20046;-63
2023/06/20 02:13:00;;;;;;;17.80;13.15;;;18.10;1.00;;;;;;4971067;28;20042;-60
2023/06/20 02:15:26;;;;;;;18.67;13.18;;;18.10;1.00;;;;;;4954880;28;20046;-60
2023/06/20 02:17:53;;;;;;;18.27;12.90;;;18.50;1.00;;;;;;4971113;28;20448;-60
2023/06/20 02:20:19;;;;;;;18.00;13.13;;;18.30;1.00;;;;;;4937910;28;20049;-60
2023/06/20 02:22:46;;;;;;;20.02;12.98;;;18.10;1.00;;;;;;4971253;28;20476;-61
2023/06/20 02:25:19;;;;;;;16.92;12.68;;;19.40;1.00;;;;;;4970741;28;20044;-60
2023/06/20 02:27:48;;;;;;;19.27;15.05;;;17.70;1.00;;;;;;4964345;28;20031;-61
2023/06/20 02:30:15;;;;;;;19.25;12.55;;;17.40;1.00;;;;;;5008068;23;20137;-55
2023/06/20 02:32:43;;;;;;;16.73;13.05;;;17.80;1.00;;;;;;4970739;28;20050;-55
2023/06/20 02:35:11;;;;;;;18.25;14.27;;;17.70;1.00;;;;;;4955768;28;20057;-53
2023/06/20 02:37:39;;;;;;;21.08;12.93;;;17.60;1.00;;;;;;4955519;28;20397;-52
2023/06/20 02:40:06;;;;;;;18.48;13.23;;;17.40;1.00;;;;;;4966794;23;20051;-58
2023/06/20 02:42:32;;;;;;;17.83;13.48;;;17.50;1.00;;;;;;4960568;28;20039;-57
2023/06/20 02:44:58;;;;;;;21.10;15.20;;;17.20;1.00;;;;;;4970219;28;20286;-57
2023/06/20 02:47:55;;;;;;;18.25;13.77;;;17.30;1.00;;;;;;4972146;28;20077;-57
2023/06/20 02:50:31;;;;;;;18.50;14.13;;;17.40;1.00;;;;;;4936347;28;20560;-57
2023/06/20 02:53:11;;;;;;;19.52;14.88;;;17.60;1.00;;;;;;5030059;23;20058;-64
2023/06/20 02:55:49;;;;;;;19.27;13.57;;;18.10;1.00;;;;;;4948604;28;20066;-65
2023/06/20 02:58:17;;;;;;;18.58;12.85;;;18.30;1.00;;;;;;4967164;28;20035;-65
2023/06/20 03:00:50;;;;;;;18.25;13.52;;;18.10;1.00;;;;;;4962206;28;20035;-64
2023/06/20 03:03:22;;;;;;;15.60;12.55;;;17.30;1.00;;;;;;4948263;29;20035;-65
2023/06/20 03:05:50;;;;;;;15.82;11.57;;;17.40;1.00;;;;;;4948085;29;20038;-65
2023/06/20 03:08:19;;;;;;;16.83;12.60;;;18.20;1.00;;;;;;4939212;29;20046;-64
2023/06/20 03:10:47;;;;;;;16.35;11.65;;;18.20;1.00;;;;;;4931878;29;20047;-64
2023/06/20 03:13:14;;;;;;;16.55;12.43;;;17.80;1.00;;;;;;4947330;29;20036;-64
2023/06/20 03:15:40;;;;;;;17.00;11.85;;;17.10;1.00;;;;;;4947236;29;20373;-64
2023/06/20 03:18:07;;;;;;;14.50;10.35;;;17.20;1.00;;;;;;4947010;29;20082;-64
2023/06/20 03:20:33;;;;;;;14.63;10.65;;;17.70;1.00;;;;;;4948789;29;20058;-64
2023/06/20 03:22:59;;;;;;;16.30;10.95;;;17.40;1.00;;;;;;4945363;29;20043;-64
2023/06/20 03:25:24;;;;;;;12.32;9.35;;;17.20;1.00;;;;;;4950563;28;20074;-64
2023/06/20 03:27:50;;;;;;;14.43;10.20;;;17.40;1.00;;;;;;4934267;29;20039;-64
2023/06/20 03:32:44;;;;;;;13.32;9.85;;;17.70;1.00;;;;;;4975713;23;20125;-57
2023/06/20 03:35:09;;;;;;;14.23;9.98;;;17.10;1.00;;;;;;4948162;28;20051;-57
2023/06/20 03:37:35;;;;;;;13.15;9.70;;;18.10;1.00;;;;;;4967638;28;20086;-58
2023/06/20 03:40:01;;;;;;;14.07;8.75;;;18.10;1.00;;;;;;4960712;28;20082;-56
2023/06/20 03:42:26;;;;;;;13.20;9.27;;;17.20;1.00;;;;;;4941560;28;20035;-57
2023/06/20 03:44:52;;;;;;;12.45;9.68;;;17.20;1.00;;;;;;4966958;28;20039;-57
2023/06/20 03:47:18;;;;;;;11.88;8.43;;;17.20;1.00;;;;;;4965785;28;20043;-57
2023/06/20 03:49:43;;;;;;;13.52;9.00;;;17.70;1.00;;;;;;4960260;28;20035;-56
2023/06/20 03:52:09;;;;;;;11.90;8.15;;;17.90;1.00;;;;;;4951217;28;20039;-57
2023/06/20 03:54:37;;;;;;;12.43;7.78;;;17.30;1.00;;;;;;4955274;28;20043;-56
2023/06/20 03:57:03;;;;;;;12.10;8.00;;;17.80;1.00;;;;;;4965076;28;20153;-57
2023/06/20 03:59:28;;;;;;;11.57;8.38;;;17.70;1.00;;;;;;4967656;28;20130;-56
2023/06/20 04:01:54;;;;;;;15.55;8.18;;;19.50;1.00;;;;;;5029780;23;20051;-63
2023/06/20 04:04:20;;;;;;;13.32;8.55;;;17.40;1.00;;;;;;4941228;28;20075;-64
2023/06/20 04:06:49;;;;;;;10.73;7.60;;;17.50;1.00;;;;;;4946472;28;20040;-64
2023/06/20 04:09:18;;;;;;;11.38;7.82;;;17.30;1.00;;;;;;4922874;28;20051;-64
2023/06/20 04:11:45;;;;;;;12.43;7.93;;;18.60;1.00;;;;;;4942131;28;20039;-64
2023/06/20 04:14:11;;;;;;;13.10;7.40;;;17.50;1.00;;;;;;4933140;28;20043;-64
2023/06/20 04:16:37;;;;;;;10.27;7.05;;;17.50;1.00;;;;;;4953858;28;20126;-64
2023/06/20 04:19:03;;;;;;;11.25;7.22;;;17.70;1.00;;;;;;4937099;29;20046;-64
2023/06/20 04:21:31;;;;;;;10.25;7.07;;;17.90;1.00;;;;;;4953938;28;20091;-64
2023/06/20 04:23:57;;;;;;;13.02;7.45;;;19.20;1.00;;;;;;4952818;28;20094;-65
2023/06/20 04:26:23;;;;;;;12.45;6.80;;;17.90;1.00;;;;;;4954987;28;20039;-65
2023/06/20 04:28:49;;;;;;;10.75;6.50;;;17.80;1.00;;;;;;4950178;28;20055;-64
2023/06/20 04:31:18;;;;;;;10.80;6.90;;;18.30;1.00;;;;;;4952269;23;20094;-58
2023/06/20 04:33:44;;;;;;;10.43;6.57;;;17.70;1.00;;;;;;4971209;28;20074;-57
2023/06/20 04:36:13;;;;;;;10.05;6.68;;;17.70;1.00;;;;;;4973474;28;20145;-59
2023/06/20 04:38:43;;;;;;;12.07;6.40;;;17.90;1.00;;;;;;4972739;28;20038;-58
2023/06/20 04:41:11;;;;;;;10.73;6.10;;;18.10;1.00;;;;;;4973089;28;20043;-57
2023/06/20 04:43:37;;;;;;;10.15;6.30;;;19.00;1.00;;;;;;4972477;28;20042;-59
2023/06/20 04:46:04;;;;;;;9.57;6.18;;;18.10;1.00;;;;;;4973388;28;20031;-59
2023/06/20 04:48:30;;;;;;;9.93;6.93;;;18.90;99.90;;;;;;4971949;28;20420;-57
2023/06/20 04:50:56;;;;;;;14.35;6.80;;;19.10;99.90;;;;;;4973312;28;20039;-57
2023/06/20 04:53:23;;;;;;;9.45;6.53;;;19.10;99.90;;;;;;4934781;28;20066;-58
2023/06/20 04:55:49;;;;;;;10.05;6.22;;;19.00;99.90;;;;;;4971696;28;20121;-58
2023/06/20 04:58:15;;;;;;;11.60;6.20;;;18.70;99.90;;;;;;4964152;28;20123;-58
2023/06/20 05:00:42;;;;;;;11.75;7.20;;;19.20;99.90;;;;;;4971703;28;20109;-58
2023/06/20 05:10:30;;;;;;;9.32;5.85;;;;;;;;;;4955615;28;20053;-83
2023/06/20 05:20:52;;;;;;;11.95;6.30;;;;;;;;;;4853154;29;20049;-86
2023/06/20 05:24:09;;;;;;;;;;;;;;;;;;;;;
2023/06/20 05:26:50;;;;;;;10.70;5.70;;;;;;;;;;4834457;29;20709;-86
2023/06/20 05:29:21;;;;;;;11.27;7.05;;;;;;;;;;4896377;29;20051;-87
2023/06/20 05:34:26;;;;;;;13.43;6.82;;;18.90;99.90;;;;;;5076012;23;21230;-69
2023/06/20 05:36:51;;;;;;;11.18;7.20;;;19.70;99.90;;;;;;4972817;28;20042;-64
2023/06/20 05:39:17;;;;;;;11.30;7.60;;;19.60;99.90;;;;;;4952266;28;20047;-65
2023/06/20 05:41:43;;;;;;;11.68;7.28;;;19.60;99.90;;;;;;4970178;28;20122;-65
2023/06/20 05:44:08;;;;;;;11.68;7.63;;;19.70;99.90;;;;;;4973302;28;20049;-67
2023/06/20 05:46:34;;;;;;;11.55;7.35;;;19.80;99.90;;;;;;4970012;28;20038;-64
2023/06/20 05:49:00;;;;;;;9.10;6.72;;;19.80;99.90;;;;;;4963601;28;20137;-64
2023/06/20 05:51:29;;;;;;;11.27;7.90;;;19.80;99.90;;;;;;4935679;28;20418;-65
2023/06/20 05:53:58;;;;;;;11.27;7.65;;;19.70;99.90;;;;;;4942828;29;20193;-64
2023/06/20 05:56:24;;;;;;;12.18;7.13;;;19.70;99.90;;;;;;4958980;28;20043;-65
2023/06/20 05:58:50;;;;;;;13.48;7.63;;;19.90;99.90;;;;;;4955828;28;20035;-64
2023/06/20 06:01:16;;;;;;;11.10;7.25;;;19.90;99.90;;;;;;4958730;28;20043;-65
2023/06/20 06:03:42;;;;;;;13.73;7.40;;;20.00;99.90;;;;;;5023053;23;20054;-60
2023/06/20 06:06:11;;;;;;;12.40;7.95;;;20.00;99.90;;;;;;4967788;28;20073;-59
2023/06/20 06:08:37;;;;;;;12.40;7.32;;;20.00;99.90;;;;;;4972512;28;20034;-59
2023/06/20 06:11:02;;;;;;;11.10;7.03;;;20.00;99.90;;;;;;4972277;28;20153;-59
2023/06/20 06:13:28;;;;;;;14.63;7.38;;;20.20;99.90;;;;;;4955954;28;20221;-59
2023/06/20 06:15:54;;;;;;;12.32;8.10;;;19.90;99.90;;;;;;4934004;29;20182;-59
2023/06/20 06:18:20;;;;;;;9.43;7.03;;;19.80;99.90;;;;;;4919282;29;20489;-58
2023/06/20 06:20:45;;;;;;;10.50;7.38;;;19.90;99.90;;;;;;4929054;29;20059;-59
2023/06/20 06:23:11;;;;;;;11.05;7.65;;;19.20;99.90;;;;;;4935026;29;20043;-59
2023/06/20 06:25:37;;;;;;;10.55;7.20;;;20.10;99.90;;;;;;4949275;28;20035;-59
2023/06/20 06:28:02;;;;;;;12.23;8.38;;;20.10;99.90;;;;;;4952964;29;20035;-59
2023/06/20 06:30:28;;;;;;;13.10;8.30;;;20.20;99.90;;;;;;4955042;28;20512;-60
2023/06/20 06:32:54;;;;;;;10.73;7.15;;;20.00;99.90;;;;;;4952384;29;20061;-59
2023/06/20 06:35:20;;;;;;;9.30;6.70;;;20.00;99.90;;;;;;4950899;29;20047;-59
2023/06/20 06:37:47;;;;;;;11.43;7.30;;;19.70;99.90;;;;;;4948571;28;20036;-59
2023/06/20 06:40:13;;;;;;;12.95;8.45;;;20.20;99.90;;;;;;4952266;29;20405;-59
2023/06/20 06:42:39;;;;;;;12.25;7.82;;;20.30;99.90;;;;;;4949647;28;20098;-59
2023/06/20 06:45:05;;;;;;;10.50;7.43;;;20.50;99.90;;;;;;4949832;29;20505;-59
2023/06/20 06:47:31;;;;;;;11.68;7.03;;;20.50;99.90;;;;;;4949188;29;20556;-59
2023/06/20 06:49:56;;;;;;;9.80;7.65;;;20.80;99.90;;;;;;4944694;29;20043;-58
2023/06/20 06:52:23;;;;;;;10.90;7.47;;;20.60;99.90;;;;;;4938943;28;20055;-58
2023/06/20 06:54:48;;;;;;;12.88;8.07;;;20.70;99.90;;;;;;4956904;28;20110;-59
2023/06/20 06:57:14;;;;;;;10.38;6.70;;;20.80;99.90;;;;;;4953458;28;20131;-59
2023/06/20 06:59:39;;;;;;;10.65;7.95;;;20.70;99.90;;;;;;4958050;28;20049;-59
2023/06/20 07:02:05;;;;;;;11.10;7.95;;;21.10;99.90;;;;;;4950236;29;20115;-59
2023/06/20 07:04:32;;;;;;;11.20;7.55;;;21.10;99.90;;;;;;4952369;29;20043;-60
2023/06/20 07:06:58;;;;;;;10.82;7.47;;;21.60;95.70;;;;;;4945835;29;20043;-60
2023/06/20 07:09:23;;;;;;;12.95;8.60;;;21.00;91.60;;;;;;4952537;28;20034;-60
2023/06/20 07:11:49;;;;;;;11.45;7.70;;;21.20;88.00;;;;;;4952258;28;20410;-60
2023/06/20 07:14:14;;;;;;;11.68;7.88;;;21.30;77.30;;;;;;4956104;28;20044;-60
2023/06/20 07:16:40;;;;;;;11.30;8.25;;;21.20;76.30;;;;;;4941520;28;20047;-60
2023/06/20 07:19:06;;;;;;;12.70;8.43;;;21.50;58.30;;;;;;4952651;29;20036;-60
2023/06/20 07:21:31;;;;;;;11.23;8.60;;;21.20;47.40;;;;;;4952451;28;20035;-60
2023/06/20 07:23:57;;;;;;;11.00;8.50;;;21.40;30.90;;;;;;4951849;28;20458;-59
2023/06/20 07:26:22;;;;;;;10.85;8.18;;;22.20;27.20;;;;;;4952400;28;20074;-60
2023/06/20 07:28:48;;;;;;;13.50;8.73;;;22.40;26.50;;;;;;4952104;28;20405;-60
2023/06/20 07:31:20;;;;;;;13.48;9.52;;;22.10;21.00;;;;;;4952124;28;20073;-60
2023/06/20 07:33:46;;;;;;;11.07;8.00;;;21.70;21.60;;;;;;4935002;28;20047;-58
2023/06/20 07:36:13;;;;;;;11.13;8.35;;;21.70;13.60;;;;;;4952419;28;20090;-59
2023/06/20 07:38:39;;;;;;;11.93;9.20;;;21.70;1.00;;;;;;4951857;28;20592;-60
2023/06/20 07:41:04;;;;;;;10.98;8.65;;;22.60;1.00;;;;;;4950554;28;20119;-60
2023/06/20 07:43:30;;;;;;;11.15;8.90;;;22.80;1.00;;;;;;4948732;29;20043;-60
2023/06/20 07:45:56;;;;;;;11.80;8.52;;;22.40;1.00;;;;;;4951234;28;20062;-60
2023/06/20 07:48:29;;;;;;;11.90;8.20;;;23.00;1.00;;;;;;4951864;29;20505;-59
2023/06/20 07:50:55;;;;;;;12.07;9.40;;;22.70;1.00;;;;;;4953623;28;20528;-60
2023/06/20 07:53:21;;;;;;;14.35;8.52;;;23.20;1.00;;;;;;4952254;28;20079;-59
2023/06/20 07:55:47;;;;;;;10.95;8.15;;;23.70;1.00;;;;;;4951061;29;20517;-60
2023/06/20 07:58:13;;;;;;;13.13;9.48;;;23.10;1.00;;;;;;4955534;29;20560;-59
2023/06/20 08:00:40;;;;;;;12.38;9.50;;;23.20;1.00;;;;;;4955424;28;20043;-60
2023/06/20 08:03:07;;;;;;;12.40;9.13;;;23.10;1.00;;;;;;4948455;29;20050;-59
2023/06/20 08:05:32;;;;;;;11.80;9.02;;;23.50;1.00;;;;;;4954510;29;20127;-59
2023/06/20 08:07:58;;;;;;;11.25;8.85;;;23.60;1.00;;;;;;4952151;29;20517;-60
2023/06/20 08:10:24;;;;;;;12.57;8.75;;;23.90;99.90;;;;;;4952107;29;20081;-60
2023/06/20 08:12:49;;;;;;;12.65;9.35;;;23.20;99.90;;;;;;4954624;29;20118;-59
2023/06/20 08:15:16;;;;;;;12.68;9.38;;;23.40;99.90;;;;;;4955470;29;20449;-60
2023/06/20 08:17:41;;;;;;;13.20;9.05;;;23.60;99.90;;;;;;4938132;29;20626;-57
2023/06/20 08:20:09;;;;;;;13.18;9.18;;;23.60;99.90;;;;;;4955479;29;20133;-60
2023/06/20 08:22:35;;;;;;;12.18;8.43;;;24.10;99.90;;;;;;4906146;29;20437;-59
2023/06/20 08:25:03;;;;;;;13.38;9.52;;;23.50;99.90;;;;;;4946141;29;20093;-60
2023/06/20 08:27:28;;;;;;;12.63;9.95;;;24.10;99.90;;;;;;4937931;29;20390;-59
2023/06/20 08:29:54;;;;;;;12.10;9.25;;;;;;;;;;4953672;28;20051;-58
2023/06/20 08:32:21;;;;;;;11.93;9.18;;;24.00;99.90;;;;;;4954984;28;20071;-56
2023/06/20 08:34:49;;;;;;;12.07;9.32;;;24.50;99.90;;;;;;4953291;28;20039;-56
2023/06/20 08:37:17;;;;;;;12.65;8.85;;;24.10;99.90;;;;;;4954368;28;20039;-58
2023/06/20 08:39:44;;;;;;;12.98;8.60;;;24.20;99.90;;;;;;4937052;29;20047;-57
2023/06/20 08:42:12;;;;;;;11.75;9.50;;;24.90;99.90;;;;;;4951862;29;20441;-58
2023/06/20 08:44:38;;;;;;;12.60;9.57;;;24.30;99.90;;;;;;4948287;29;20070;-58
2023/06/20 08:47:04;;;;;;;11.95;9.57;;;24.90;99.90;;;;;;4950052;28;20109;-58
2023/06/20 08:49:30;;;;;;;13.43;10.40;;;25.10;99.90;;;;;;4950381;29;20043;-56
2023/06/20 08:52:02;;;;;;;10.98;9.68;;;24.30;99.90;;;;;;4957606;28;20039;-57
2023/06/20 08:54:34;;;;;;;12.82;8.93;;;24.10;99.90;;;;;;4953904;28;20117;-58
2023/06/20 08:57:00;;;;;;;13.93;9.85;;;24.80;99.90;;;;;;4952988;28;20039;-57
2023/06/20 08:59:25;;;;;;;12.15;9.65;;;24.90;99.90;;;;;;4956737;28;20046;-56
2023/06/20 09:01:51;;;;;;;14.82;9.70;;;24.60;99.90;;;;;;4954667;28;20055;-57
2023/06/20 09:04:18;;;;;;;12.15;9.85;;;24.70;99.90;;;;;;4954768;28;20039;-60
2023/06/20 09:06:45;;;;;;;11.73;9.48;;;24.50;99.90;;;;;;4951614;29;20071;-57
2023/06/20 09:09:17;;;;;;;12.73;9.85;;;25.30;99.90;;;;;;4933709;29;20183;-58
2023/06/20 09:11:58;;;;;;;15.00;9.93;;;24.90;99.90;;;;;;4917759;29;20047;-58
2023/06/20 09:14:29;;;;;;;13.05;9.45;;;24.20;99.90;;;;;;4930333;29;20412;-59
2023/06/20 09:16:55;;;;;;;13.65;10.27;;;25.50;99.90;;;;;;4956824;28;20067;-58
2023/06/20 09:19:23;;;;;;;11.52;9.63;;;24.50;99.90;;;;;;4952335;28;20035;-59
2023/06/20 09:21:49;;;;;;;13.80;10.05;;;25.00;99.90;;;;;;4943823;29;20583;-59
2023/06/20 09:24:21;;;;;;;13.45;10.32;;;25.60;99.90;;;;;;4949191;29;20031;-58
2023/06/20 09:26:50;;;;;;;12.40;9.27;;;24.80;99.90;;;;;;4952006;29;20042;-60
2023/06/20 09:29:17;;;;;;;10.60;8.85;;;25.60;99.90;;;;;;4932969;29;20050;-57
2023/06/20 09:31:43;;;;;;;13.13;10.13;;;25.40;99.90;;;;;;4934717;29;20085;-59
2023/06/20 09:34:13;;;;;;;13.02;9.20;;;25.80;99.90;;;;;;4944982;29;20058;-59
2023/06/20 09:36:40;;;;;;;10.65;8.68;;;26.20;99.90;;;;;;4945902;29;20104;-58
2023/06/20 09:39:13;;;;;;;15.02;10.85;;;25.70;99.90;;;;;;4949057;29;20552;-59
2023/06/20 09:41:49;;;;;;;12.88;10.18;;;25.90;99.90;;;;;;4946799;28;20091;-60
2023/06/20 09:44:16;;;;;;;11.80;9.15;;;25.30;99.90;;;;;;4952900;29;20446;-60
2023/06/20 09:46:42;;;;;;;11.27;8.93;;;25.90;99.90;;;;;;4935250;29;20171;-60
2023/06/20 09:49:10;;;;;;;11.13;9.13;;;24.90;99.90;;;;;;4952417;28;20134;-60
2023/06/20 09:51:47;;;;;;;12.55;9.25;;;25.80;99.90;;;;;;4954778;28;20051;-60
2023/06/20 09:54:15;;;;;;;9.95;8.45;;;26.10;99.90;;;;;;4953496;28;20043;-60
2023/06/20 09:56:52;;;;;;;12.32;8.63;;;26.20;99.90;;;;;;4953774;28;20043;-59
2023/06/20 09:59:21;;;;;;;11.32;9.15;;;26.10;99.90;;;;;;4937342;29;20047;-59
2023/06/20 10:01:48;;;;;;;10.50;7.50;;;26.20;76.40;;;;;;4952067;28;20047;-59
2023/06/20 10:04:15;;;;;;;9.77;8.13;;;25.90;52.10;;;;;;4953356;28;20043;-60
2023/06/20 10:06:41;;;;;;;13.43;8.98;;;26.30;23.80;;;;;;4952747;28;20114;-59
2023/06/20 10:09:07;;;;;;;10.93;8.52;;;25.90;1.00;;;;;;4949052;29;20123;-59
2023/06/20 10:11:38;;;;;;;11.45;7.85;;;26.40;1.00;;;;;;4951778;28;20042;-59
2023/06/20 10:14:04;;;;;;;9.23;7.63;;;26.50;1.00;;;;;;4951851;28;20066;-59
2023/06/20 10:16:30;;;;;;;11.13;7.75;;;26.30;1.00;;;;;;4952301;29;20047;-59
2023/06/20 10:18:56;;;;;;;10.82;8.05;;;26.60;1.00;;;;;;4951532;29;20091;-59
2023/06/20 10:21:59;;;;;;;9.93;7.47;;;26.70;1.00;;;;;;4949916;28;20556;-60
2023/06/20 10:24:27;;;;;;;10.52;7.72;;;27.00;1.00;;;;;;4948169;29;20047;-60
2023/06/20 10:26:54;;;;;;;10.05;7.82;;;26.80;1.00;;;;;;4946643;28;20170;-60
2023/06/20 10:29:21;;;;;;;10.98;8.25;;;26.00;99.90;;;;;;4935551;29;20445;-59
2023/06/20 10:32:04;;;;;;;9.02;7.18;;;26.50;99.90;;;;;;4947244;28;20039;-60
2023/06/20 10:34:35;;;;;;;9.48;6.97;;;27.00;99.90;;;;;;4951499;28;20121;-59
2023/06/20 10:37:35;;;;;;;10.10;5.50;;;27.10;99.90;;;;;;4937568;29;20046;-60
2023/06/20 10:40:01;;;;;;;9.82;6.28;;;27.20;99.90;;;;;;4916442;29;20051;-60
2023/06/20 10:42:41;;;;;;;8.32;6.70;;;27.10;99.90;;;;;;4947986;28;20032;-60
2023/06/20 10:45:20;;;;;;;8.18;6.30;;;27.00;99.90;;;;;;4945656;29;20043;-59
2023/06/20 10:47:47;;;;;;;9.45;7.22;;;27.20;99.90;;;;;;4949535;29;20035;-60
2023/06/20 10:50:13;;;;;;;8.57;6.65;;;26.80;99.90;;;;;;4952071;28;20039;-59
2023/06/20 10:52:40;;;;;;;8.07;6.10;;;27.30;99.90;;;;;;4955228;28;20035;-59
2023/06/20 10:55:13;;;;;;;10.25;7.07;;;27.20;99.90;;;;;;4953042;28;20402;-58
2023/06/20 10:57:46;;;;;;;11.00;7.55;;;27.30;99.90;;;;;;4935165;29;20378;-60
2023/06/20 11:00:15;;;;;;;14.00;7.25;;;27.50;99.90;;;;;;4942084;29;20098;-58
2023/06/20 11:02:41;;;;;;;10.27;6.97;;;27.30;99.90;;;;;;4934861;29;20043;-58
2023/06/20 11:05:09;;;;;;;9.10;7.47;;;27.40;99.90;;;;;;4953050;28;20106;-59
2023/06/20 11:07:35;;;;;;;9.02;6.60;;;27.30;99.90;;;;;;4951152;28;20047;-58
2023/06/20 11:10:13;;;;;;;8.77;6.60;;;27.50;99.90;;;;;;4941676;28;20110;-57
2023/06/20 11:12:42;;;;;;;9.75;7.03;;;27.50;99.90;;;;;;4934501;28;20047;-57
2023/06/20 11:15:28;;;;;;;8.55;6.55;;;27.70;87.90;;;;;;4945000;29;20103;-59
2023/06/20 11:17:56;;;;;;;10.00;6.38;;;28.00;59.60;;;;;;4943997;29;20119;-59
2023/06/20 11:20:23;;;;;;;8.30;5.68;;;28.20;43.30;;;;;;4930199;29;20047;-59
2023/06/20 11:22:52;;;;;;;8.23;6.03;;;27.50;1.00;;;;;;4950879;28;20508;-57
2023/06/20 11:25:28;;;;;;;6.78;5.20;;;27.70;1.00;;;;;;4936807;29;20748;-57
2023/06/20 11:27:55;;;;;;;7.22;5.60;;;27.80;1.00;;;;;;4936196;29;20103;-58
2023/06/20 11:30:28;;;;;;;6.78;5.10;;;28.00;1.00;;;;;;4941963;29;20130;-58
2023/06/20 11:33:13;;;;;;;9.15;5.57;;;27.90;99.90;;;;;;4955379;28;20124;-61
2023/06/20 11:35:39;;;;;;;6.88;4.90;;;28.50;99.90;;;;;;4956518;28;20419;-58
2023/06/20 11:38:05;;;;;;;7.22;5.10;;;28.10;99.90;;;;;;4929363;28;20130;-59
2023/06/20 11:40:31;;;;;;;10.35;5.07;;;28.30;99.90;;;;;;4959524;28;20042;-59
2023/06/20 11:42:56;;;;;;;7.65;5.15;;;29.30;99.90;;;;;;4955911;28;20121;-58
2023/06/20 11:45:26;;;;;;;7.18;5.35;;;28.10;99.90;;;;;;4957381;28;20118;-59
2023/06/20 11:48:12;;;;;;;9.27;5.95;;;29.40;99.90;;;;;;4954662;28;20366;-59
2023/06/20 11:50:41;;;;;;;7.93;5.10;;;28.70;99.90;;;;;;4958565;28;20385;-58
2023/06/20 11:53:20;;;;;;;8.07;5.70;;;28.70;99.90;;;;;;4954054;28;20047;-58
2023/06/20 11:56:00;;;;;;;8.60;5.47;;;28.70;99.90;;;;;;4957933;28;20050;-58
2023/06/20 11:58:26;;;;;;;8.38;5.07;;;28.80;99.90;;;;;;4954890;29;20039;-57
2023/06/20 12:01:10;;;;;;;7.25;5.10;;;29.10;99.90;;;;;;4953318;28;20053;-58
2023/06/20 12:03:38;;;;;;;7.40;4.80;;;29.90;99.90;;;;;;4954312;28;20170;-58
2023/06/20 12:06:33;;;;;;;9.75;5.28;;;30.00;99.90;;;;;;4939726;29;20510;-58
2023/06/20 12:09:13;;;;;;;7.88;5.43;;;30.20;99.90;;;;;;4958026;28;20032;-58
2023/06/20 12:11:53;;;;;;;8.60;5.60;;;30.30;99.90;;;;;;4958601;28;20437;-59
2023/06/20 12:14:23;;;;;;;7.75;4.65;;;30.60;99.90;;;;;;4938169;29;20066;-59
2023/06/20 12:16:49;;;;;;;8.63;4.80;;;30.40;97.40;;;;;;4953830;29;20046;-59
2023/06/20 12:19:17;;;;;;;7.43;4.85;;;30.30;82.60;;;;;;4937603;29;20039;-59
2023/06/20 12:21:43;;;;;;;7.95;5.20;;;31.00;75.30;;;;;;4940199;29;20047;-58
2023/06/20 12:24:10;;;;;;;8.00;4.68;;;30.80;57.60;;;;;;4937149;29;20493;-58
2023/06/20 12:26:36;;;;;;;7.70;4.57;;;31.20;52.20;;;;;;4954233;29;20122;-57
2023/06/20 12:29:02;;;;;;;7.68;4.63;;;31.00;12.90;;;;;;4955189;28;20472;-58
2023/06/20 12:31:27;;;;;;;7.75;5.13;;;31.60;1.00;;;;;;4945261;29;20051;-59
2023/06/20 12:33:53;;;;;;;8.13;5.07;;;31.60;1.00;;;;;;4954061;28;20441;-58
2023/06/20 12:36:19;;;;;;;7.43;4.55;;;31.70;1.00;;;;;;4953347;28;20397;-58
2023/06/20 12:38:44;;;;;;;8.18;5.25;;;32.10;1.00;;;;;;4953005;28;20205;-59
2023/06/20 12:41:11;;;;;;;9.68;5.25;;;33.20;1.00;;;;;;4949387;28;20039;-59
2023/06/20 12:43:37;;;;;;;6.80;4.85;;;35.50;1.00;;;;;;4940197;29;20046;-59
2023/06/20 12:46:03;;;;;;;7.65;5.03;;;35.60;1.00;;;;;;4935430;29;20130;-59
2023/06/20 12:48:29;;;;;;;7.78;5.10;;;36.80;1.00;;;;;;4947159;29;20093;-59
2023/06/20 12:50:55;;;;;;;8.80;5.50;;;38.00;1.00;;;;;;4954069;29;20493;-59
2023/06/20 12:53:21;;;;;;;6.82;5.13;;;37.90;99.90;;;;;;4957468;28;20031;-61
2023/06/20 12:55:47;;;;;;;7.53;5.80;;;39.10;99.90;;;;;;4946051;28;20039;-59
2023/06/20 12:58:14;;;;;;;7.15;5.72;;;40.20;99.90;;;;;;4960654;28;20522;-60
2023/06/20 13:00:41;;;;;;;6.90;4.68;;;41.50;99.90;;;;;;4935208;29;20039;-58
2023/06/20 13:03:08;;;;;;;8.75;5.40;;;41.90;99.90;;;;;;4930592;29;20047;-58
2023/06/20 13:05:37;;;;;;;7.10;4.93;;;42.70;99.90;;;;;;4930631;29;20035;-57
2023/06/20 13:08:04;;;;;;;7.18;5.45;;;43.60;99.90;;;;;;4949310;29;20043;-58
2023/06/20 13:10:30;;;;;;;6.93;5.63;;;44.70;99.90;;;;;;4950554;29;20039;-59
2023/06/20 13:12:58;;;;;;;6.60;4.80;;;45.20;99.90;;;;;;4952825;28;20154;-60
2023/06/20 13:15:29;;;;;;;6.63;4.70;;;45.70;99.90;;;;;;4946723;28;20043;-58